Time;durP1;ratioP1;P1;durP2;ratioP2;P2;SDS_P1;SDS_P2;PMS_P1;PMS_P2;Temp;Humidity;BMP_temperature;BMP_pressure;BME280_temperature;BME280_humidity;BME280_pressure;Samples;Min_cycle;Max_cycle;Signal;HPM_P1;HPM_P2
2022/03/14 00:06:43;;;;;;;23.30;14.90;;;;;;;-1.58;59.53;100732.34;434836;1269;143982;-73
2022/03/14 00:16:49;;;;;;;25.00;15.90;;;;;;;-1.73;60.00;100728.67;434585;1271;141136;-74
2022/03/14 00:26:55;;;;;;;23.00;14.00;;;;;;;-1.84;60.17;100725.36;434613;1271;141486;-74
2022/03/14 00:37:01;;;;;;;22.90;15.00;;;;;;;-1.94;60.43;100732.16;433556;1270;142038;-74
2022/03/14 00:47:08;;;;;;;22.90;13.80;;;;;;;-2.08;60.93;100737.23;434547;1270;141975;-73
2022/03/14 00:57:15;;;;;;;25.70;14.30;;;;;;;-2.21;61.31;100738.70;433194;1271;153113;-69
2022/03/14 01:07:21;;;;;;;24.80;14.20;;;;;;;-2.27;61.67;100735.39;432165;1270;141443;-68
2022/03/14 01:17:27;;;;;;;24.60;16.90;;;;;;;-2.27;61.89;100730.24;432294;1270;141905;-68
2022/03/14 01:27:34;;;;;;;22.20;15.30;;;;;;;-2.35;62.24;100719.89;431545;1270;141060;-69
2022/03/14 01:37:38;;;;;;;;;;;;;;;-2.47;62.43;100720.14;433001;1270;141787;-70
2022/03/14 01:47:45;;;;;;;25.00;15.80;;;;;;;-2.50;62.51;100723.89;435228;1270;127879;-70
2022/03/14 01:57:51;;;;;;;21.10;13.50;;;;;;;-2.53;62.54;100733.13;439547;1270;143361;-71
2022/03/14 02:07:59;;;;;;;28.90;17.50;;;;;;;-2.65;62.81;100743.14;438415;1269;142826;-69
2022/03/14 02:18:05;;;;;;;22.10;14.00;;;;;;;-2.81;63.13;100747.45;437734;1270;141025;-71
2022/03/14 02:28:13;;;;;;;22.80;13.80;;;;;;;-2.95;63.25;100753.32;436717;1270;142090;-70
2022/03/14 02:38:19;;;;;;;22.80;15.10;;;;;;;-3.05;63.59;100759.53;437877;1269;140751;-69
2022/03/14 02:48:23;;;;;;;;;;;;;;;-3.19;63.80;100762.14;437627;1270;142458;-69
2022/03/14 02:58:32;;;;;;;25.30;15.60;;;;;;;-3.24;64.28;100769.80;434969;1270;127415;-69
2022/03/14 03:08:38;;;;;;;25.20;15.60;;;;;;;-3.29;64.48;100777.78;434780;1270;141289;-69
2022/03/14 03:18:45;;;;;;;25.80;15.80;;;;;;;-3.28;64.77;100787.37;435299;1270;141509;-70
2022/03/14 03:28:51;;;;;;;26.90;15.20;;;;;;;-3.29;64.78;100796.45;434629;1270;142084;-69
2022/03/14 03:38:58;;;;;;;22.90;14.00;;;;;;;-3.36;64.94;100804.40;434473;1270;142009;-71
2022/03/14 03:49:04;;;;;;;22.50;14.20;;;;;;;-3.42;65.36;100810.66;432403;1270;143865;-70
2022/03/14 03:59:10;;;;;;;25.30;16.40;;;;;;;-3.41;65.52;100810.84;434479;1270;142593;-70
2022/03/14 04:09:16;;;;;;;22.20;14.50;;;;;;;-3.36;65.31;100817.58;435315;1270;143338;-69
2022/03/14 04:19:22;;;;;;;22.70;15.70;;;;;;;-3.42;65.59;100819.91;435255;1270;141056;-70
2022/03/14 04:29:28;;;;;;;25.50;16.50;;;;;;;-3.52;65.64;100824.41;435507;1270;142798;-69
2022/03/14 04:39:33;;;;;;;;;;;;;;;-3.54;65.72;100820.96;434162;1270;142852;-69
2022/03/14 04:49:39;;;;;;;22.10;14.70;;;;;;;-3.54;65.93;100816.16;435085;1270;128513;-71
2022/03/14 04:59:44;;;;;;;23.10;16.40;;;;;;;-3.65;65.97;100822.34;435307;1270;145154;-69
2022/03/14 05:09:50;;;;;;;23.50;16.90;;;;;;;-3.67;66.39;100830.36;434068;1270;141757;-70
2022/03/14 05:19:56;;;;;;;30.20;17.30;;;;;;;-3.55;66.35;100828.30;434963;1271;141815;-70
2022/03/14 05:30:02;;;;;;;26.80;16.60;;;;;;;-3.35;66.19;100834.38;436491;1270;141453;-71
2022/03/14 05:40:09;;;;;;;;;;;;;;;-3.10;65.81;100843.27;433204;1271;141648;-70
2022/03/14 05:50:15;;;;;;;24.10;16.60;;;;;;;-2.76;65.80;100849.65;436056;1269;127907;-70
2022/03/14 06:00:24;;;;;;;29.50;17.40;;;;;;;-0.21;64.77;100841.76;433806;1270;142396;-71
2022/03/14 06:10:32;;;;;;;23.10;16.50;;;;;;;5.85;57.79;100838.29;434377;1269;142587;-70
2022/03/14 06:20:38;;;;;;;22.50;16.40;;;;;;;9.82;51.12;100839.45;436153;1270;141059;-71
2022/03/14 06:30:44;;;;;;;21.40;16.70;;;;;;;12.54;45.46;100845.04;435478;1269;141776;-72
2022/03/14 06:40:50;;;;;;;19.30;17.00;;;;;;;15.16;41.33;100840.98;436938;1270;141461;-72
2022/03/14 06:50:56;;;;;;;19.90;16.50;;;;;;;17.14;37.64;100844.48;434970;1270;142590;-74
2022/03/14 07:01:01;;;;;;;19.10;17.10;;;;;;;18.54;34.22;100837.23;439945;1269;141672;-71
2022/03/14 07:11:07;;;;;;;20.40;18.30;;;;;;;20.10;31.80;100843.25;437668;1270;141777;-72
2022/03/14 07:21:13;;;;;;;21.80;19.20;;;;;;;21.05;29.78;100847.23;434180;1270;196752;-73
2022/03/14 07:31:20;;;;;;;21.80;19.00;;;;;;;22.80;27.96;100851.77;434600;1270;182610;-74
2022/03/14 07:41:26;;;;;;;19.80;17.60;;;;;;;23.81;26.28;100850.79;434232;1270;141275;-74
2022/03/14 07:51:33;;;;;;;21.30;18.90;;;;;;;24.54;24.70;100850.29;433965;1270;164259;-74
2022/03/14 08:01:39;;;;;;;20.40;18.50;;;;;;;25.41;23.61;100845.98;434938;1269;142213;-76
2022/03/14 08:11:45;;;;;;;19.70;17.90;;;;;;;26.57;22.65;100839.88;433631;1269;142412;-64
2022/03/14 08:21:51;;;;;;;21.10;18.50;;;;;;;27.99;21.36;100841.96;430546;1270;142893;-63
2022/03/14 08:31:58;;;;;;;18.90;17.20;;;;;;;29.00;20.53;100849.18;431604;1270;142836;-62
2022/03/14 08:42:04;;;;;;;19.50;17.50;;;;;;;29.40;19.65;100845.43;431979;1268;145761;-66
2022/03/14 08:52:10;;;;;;;20.10;18.20;;;;;;;29.14;18.98;100835.45;431682;1269;141376;-62
2022/03/14 09:02:16;;;;;;;19.20;16.80;;;;;;;29.84;18.59;100834.31;432189;1269;141882;-65
2022/03/14 09:12:22;;;;;;;22.80;19.40;;;;;;;28.72;18.31;100831.41;430534;1270;142045;-63
2022/03/14 09:22:28;;;;;;;22.50;19.60;;;;;;;20.66;20.56;100830.01;432215;1269;142032;-62
2022/03/14 09:32:36;;;;;;;26.20;19.50;;;;;;;14.91;24.20;100852.16;430965;1270;142117;-61
2022/03/14 09:42:44;;;;;;;26.20;19.40;;;;;;;12.29;27.28;100854.23;430674;1270;141737;-61
2022/03/14 09:52:50;;;;;;;25.10;20.40;;;;;;;10.84;29.16;100860.55;431521;1268;141533;-64
2022/03/14 10:02:57;;;;;;;24.50;19.00;;;;;;;10.08;30.61;100863.63;431392;1270;142905;-65
2022/03/14 10:13:03;;;;;;;25.80;20.50;;;;;;;9.58;31.58;100864.77;430430;1270;141948;-68
2022/03/14 10:23:09;;;;;;;25.80;20.60;;;;;;;9.17;32.58;100865.06;433582;1270;141738;-64
2022/03/14 10:33:16;;;;;;;30.00;19.40;;;;;;;8.71;33.38;100865.17;430640;1270;144952;-64
2022/03/14 10:43:28;;;;;;;28.70;19.60;;;;;;;8.39;34.44;100866.27;431629;1270;141595;-64
2022/03/14 10:53:35;;;;;;;25.20;18.90;;;;;;;8.32;34.68;100860.37;431855;1270;141362;-66
2022/03/14 11:03:43;;;;;;;22.30;18.30;;;;;;;8.36;34.66;100845.76;431375;1270;141395;-68
2022/03/14 11:13:50;;;;;;;23.40;15.70;;;;;;;8.30;34.82;100837.93;432891;1270;142325;-62
2022/03/14 11:23:56;;;;;;;;;;;;;;;8.26;34.54;100828.48;431365;1270;140544;-64
2022/03/14 11:34:03;;;;;;;27.20;16.40;;;;;;;8.29;34.42;100813.02;431192;1270;131505;-60
2022/03/14 11:44:10;;;;;;;20.40;14.20;;;;;;;8.42;33.90;100803.01;431603;1270;140778;-62
2022/03/14 11:54:16;;;;;;;16.60;13.00;;;;;;;8.63;33.96;100789.52;430259;1270;141786;-61
2022/03/14 12:04:33;;;;;;;23.90;16.20;;;;;;;8.85;33.38;100774.74;432489;1270;201383;-62
2022/03/14 12:14:44;;;;;;;14.00;12.40;;;;;;;8.99;33.71;100774.05;432519;1270;143580;-65
2022/03/14 12:24:50;;;;;;;18.50;13.60;;;;;;;9.11;33.78;100759.27;430879;1270;142202;-62
2022/03/14 12:35:01;;;;;;;20.30;12.20;;;;;;;9.29;33.13;100742.48;432490;1270;141214;-64
2022/03/14 12:45:24;;;;;;;13.30;10.00;;;;;;;9.41;32.63;100741.65;432487;1270;141774;-64
2022/03/14 12:55:30;;;;;;;15.40;11.40;;;;;;;9.49;31.63;100738.56;432789;1270;140443;-66
2022/03/14 13:05:42;;;;;;;13.50;9.90;;;;;;;9.53;31.74;100731.06;435141;1270;141675;-64
2022/03/14 13:16:02;;;;;;;12.10;9.30;;;;;;;9.69;31.82;100732.45;446866;1269;141446;-63
2022/03/14 13:26:08;;;;;;;13.90;9.60;;;;;;;9.81;31.50;100731.97;438504;1270;143194;-63
2022/03/14 13:36:16;;;;;;;14.10;11.40;;;;;;;9.95;32.00;100721.23;445436;1269;141640;-63
2022/03/14 13:46:31;;;;;;;16.20;10.70;;;;;;;10.10;32.04;100716.89;438217;1270;141092;-68
2022/03/14 13:56:41;;;;;;;16.10;11.50;;;;;;;10.18;32.12;100717.27;447612;1269;141981;-62
2022/03/14 14:06:51;;;;;;;16.80;11.30;;;;;;;10.27;32.53;100727.00;440783;1270;141860;-61
2022/03/14 14:17:11;;;;;;;13.00;9.70;;;;;;;10.36;32.50;100720.50;447697;1268;141889;-61
2022/03/14 14:27:18;;;;;;;14.50;10.70;;;;;;;10.47;32.59;100717.41;446828;1269;141840;-67
2022/03/14 14:37:25;;;;;;;14.50;10.90;;;;;;;10.57;32.21;100716.63;447818;1269;141881;-66
2022/03/14 14:47:31;;;;;;;10.10;6.70;;;;;;;10.67;31.68;100709.16;447830;1269;141589;-64
2022/03/14 14:57:37;;;;;;;8.50;6.00;;;;;;;10.77;30.36;100704.65;446821;1270;141496;-63
2022/03/14 15:07:43;;;;;;;6.70;5.70;;;;;;;10.79;29.91;100704.91;447707;1270;141904;-62
2022/03/14 15:17:48;;;;;;;9.20;5.90;;;;;;;10.82;29.77;100706.73;447401;1270;142151;-66
2022/03/14 15:27:54;;;;;;;9.80;6.20;;;;;;;10.86;29.59;100708.46;446105;1269;141406;-63
2022/03/14 15:38:03;;;;;;;8.10;6.30;;;;;;;10.79;29.38;100705.26;443187;1269;140785;-62
2022/03/14 15:48:09;;;;;;;8.90;6.60;;;;;;;10.65;29.35;100695.96;430749;1270;141419;-61
2022/03/14 15:58:15;;;;;;;8.20;6.00;;;;;;;10.44;29.42;100689.55;431286;1271;140794;-61
2022/03/14 16:08:22;;;;;;;12.00;7.30;;;;;;;10.16;29.60;100688.85;431327;1270;141637;-64
2022/03/14 16:18:29;;;;;;;11.90;7.20;;;;;;;9.85;29.87;100692.65;447081;1270;141707;-66
2022/03/14 16:28:35;;;;;;;21.30;16.50;;;;;;;9.53;30.37;100691.34;447713;1270;141298;-63
2022/03/14 16:38:41;;;;;;;17.70;11.60;;;;;;;9.26;30.65;100682.68;447786;1270;141708;-63
2022/03/14 16:48:47;;;;;;;16.10;12.80;;;;;;;8.91;31.59;100690.70;446887;1269;141149;-61
2022/03/14 16:58:53;;;;;;;20.40;15.80;;;;;;;8.55;33.90;100699.06;437164;1270;143126;-66
2022/03/14 17:08:59;;;;;;;26.90;17.60;;;;;;;8.19;35.32;100719.72;430363;1271;141786;-64
2022/03/14 17:19:05;;;;;;;27.00;17.00;;;;;;;7.77;36.44;100728.81;429978;1271;141309;-63
2022/03/14 17:29:11;;;;;;;23.50;16.10;;;;;;;7.47;37.40;100738.02;447729;1269;141456;-63
2022/03/14 17:39:16;;;;;;;23.20;16.20;;;;;;;7.24;38.17;100743.29;431744;1271;142353;-64
2022/03/14 17:49:22;;;;;;;27.40;18.40;;;;;;;7.04;38.58;100751.56;430774;1270;142686;-63
2022/03/14 17:59:28;;;;;;;24.10;17.10;;;;;;;6.84;38.92;100759.63;433728;1271;144420;-63
2022/03/14 18:09:35;;;;;;;23.60;16.60;;;;;;;6.68;39.10;100762.38;446777;1269;141491;-64
2022/03/14 18:19:41;;;;;;;23.40;17.40;;;;;;;6.46;39.70;100772.02;445074;1269;141184;-61
2022/03/14 18:29:47;;;;;;;26.40;16.50;;;;;;;6.16;40.21;100787.61;440322;1270;141953;-63
2022/03/14 18:39:53;;;;;;;29.80;21.90;;;;;;;5.77;40.90;100787.71;436496;1269;142524;-64
2022/03/14 18:50:25;;;;;;;41.60;25.70;;;;;;;5.40;41.50;100789.60;445044;1270;152409;-64
2022/03/14 19:00:47;;;;;;;42.60;28.00;;;;;;;5.11;42.40;100791.48;446985;1269;141081;-60
2022/03/14 19:10:54;;;;;;;46.50;31.70;;;;;;;4.95;43.26;100793.39;447668;1269;142434;-61
2022/03/14 19:21:00;;;;;;;42.70;28.30;;;;;;;4.77;43.32;100793.41;447502;1270;141598;-62
2022/03/14 19:31:06;;;;;;;42.70;27.90;;;;;;;4.57;43.94;100796.23;446840;1270;141761;-62
2022/03/14 19:41:15;;;;;;;39.30;25.70;;;;;;;4.38;43.99;100793.83;447719;1269;141534;-62
2022/03/14 19:51:21;;;;;;;44.40;28.70;;;;;;;4.21;43.90;100791.02;446916;1269;141567;-63
2022/03/14 20:01:27;;;;;;;40.20;27.50;;;;;;;4.02;44.15;100795.17;443354;1270;141742;-62
2022/03/14 20:11:34;;;;;;;40.70;24.60;;;;;;;3.85;44.08;100791.98;431477;1270;140221;-65
2022/03/14 20:21:40;;;;;;;37.20;23.20;;;;;;;3.74;43.88;100794.95;444580;1269;142922;-62
2022/03/14 20:31:48;;;;;;;35.30;21.40;;;;;;;3.71;43.54;100786.52;434506;1269;141720;-62
2022/03/14 20:41:57;;;;;;;35.50;22.90;;;;;;;3.63;43.44;100782.13;432418;1270;140499;-62
2022/03/14 20:52:06;;;;;;;36.90;23.80;;;;;;;3.51;43.68;100784.91;441443;1270;142471;-63
2022/03/14 21:12:39;;;;;;;35.40;22.50;;;;;;;3.26;43.94;100792.56;446814;1269;142026;-66
2022/03/14 21:22:48;;;;;;;35.70;23.90;;;;;;;3.17;44.39;100790.77;447403;1269;141669;-65
2022/03/14 21:32:56;;;;;;;37.00;25.60;;;;;;;3.18;44.55;100791.28;447705;1269;141417;-63
2022/03/14 21:43:05;;;;;;;38.80;23.60;;;;;;;3.07;44.64;100797.85;446919;1269;142681;-62
2022/03/14 21:53:11;;;;;;;39.50;26.30;;;;;;;2.91;45.03;100794.40;447760;1268;141560;-61
2022/03/14 22:03:19;;;;;;;42.90;26.10;;;;;;;2.72;45.20;100790.15;446874;1269;141776;-63
2022/03/14 22:13:25;;;;;;;38.00;23.70;;;;;;;2.60;45.10;100783.03;447583;1269;140647;-63
2022/03/14 22:23:31;;;;;;;33.40;23.60;;;;;;;2.49;44.85;100781.08;442637;1269;140868;-60
2022/03/14 22:33:36;;;;;;;37.40;24.10;;;;;;;2.37;44.95;100800.92;437587;1269;142022;-62
2022/03/14 22:43:42;;;;;;;46.50;29.80;;;;;;;2.12;45.47;100804.97;447817;1269;141653;-62
2022/03/14 22:53:48;;;;;;;46.80;28.00;;;;;;;1.86;46.21;100817.45;447797;1269;141858;-62
2022/03/14 23:14:19;;;;;;;63.10;36.00;;;;;;;1.21;47.44;100823.77;444552;1269;141950;-63
2022/03/14 23:24:27;;;;;;;52.50;32.60;;;;;;;1.01;47.57;100824.04;445511;1270;142474;-63
2022/03/14 23:34:33;;;;;;;55.80;33.20;;;;;;;0.94;47.75;100825.78;439033;1269;141777;-63
2022/03/14 23:44:39;;;;;;;49.30;30.00;;;;;;;0.80;48.62;100823.26;447752;1268;142301;-63
2022/03/14 23:54:45;;;;;;;57.60;31.60;;;;;;;0.60;49.62;100827.64;446973;1269;141805;-60
